sensor_id;sensor_type;location;lat;lon;timestamp;temperature;humidity
19888;DHT22;10106;51.332;12.336;2023-08-08T05:08:30;13.50;99.90
19888;DHT22;10106;51.332;12.336;2023-08-08T05:10:56;13.50;99.90
19888;DHT22;10106;51.332;12.336;2023-08-08T05:13:22;13.50;99.90
19888;DHT22;10106;51.332;12.336;2023-08-08T05:15:47;13.60;99.90
19888;DHT22;10106;51.332;12.336;2023-08-08T05:18:13;13.60;99.90
19888;DHT22;10106;51.332;12.336;2023-08-08T05:20:38;13.60;99.90
19888;DHT22;10106;51.332;12.336;2023-08-08T05:23:04;13.60;99.90
19888;DHT22;10106;51.332;12.336;2023-08-08T05:25:30;13.70;99.90
19888;DHT22;10106;51.332;12.336;2023-08-08T05:27:55;13.70;99.90
19888;DHT22;10106;51.332;12.336;2023-08-08T05:30:21;13.70;99.90
19888;DHT22;10106;51.332;12.336;2023-08-08T05:32:47;13.70;99.90
19888;DHT22;10106;51.332;12.336;2023-08-08T05:35:12;13.70;99.90
19888;DHT22;10106;51.332;12.336;2023-08-08T05:37:38;13.70;99.90
19888;DHT22;10106;51.332;12.336;2023-08-08T05:40:04;13.80;99.90
19888;DHT22;10106;51.332;12.336;2023-08-08T05:42:31;13.80;99.90
19888;DHT22;10106;51.332;12.336;2023-08-08T05:44:57;13.90;99.90
19888;DHT22;10106;51.332;12.336;2023-08-08T05:47:23;13.90;99.90
19888;DHT22;10106;51.332;12.336;2023-08-08T05:49:48;13.90;99.90
19888;DHT22;10106;51.332;12.336;2023-08-08T05:52:14;13.90;99.90
19888;DHT22;10106;51.332;12.336;2023-08-08T05:54:39;14.00;99.90
19888;DHT22;10106;51.332;12.336;2023-08-08T05:57:05;14.00;99.90
19888;DHT22;10106;51.332;12.336;2023-08-08T05:59:31;14.00;99.90
19888;DHT22;10106;51.332;12.336;2023-08-08T06:01:57;14.00;99.90
19888;DHT22;10106;51.332;12.336;2023-08-08T06:04:24;14.10;99.90
19888;DHT22;10106;51.332;12.336;2023-08-08T06:06:49;14.10;99.90
19888;DHT22;10106;51.332;12.336;2023-08-08T06:09:15;14.10;99.90
19888;DHT22;10106;51.332;12.336;2023-08-08T06:11:41;14.20;99.90
19888;DHT22;10106;51.332;12.336;2023-08-08T06:14:06;14.30;99.90
19888;DHT22;10106;51.332;12.336;2023-08-08T06:16:32;14.40;99.90
19888;DHT22;10106;51.332;12.336;2023-08-08T06:19:07;14.50;99.90
19888;DHT22;10106;51.332;12.336;2023-08-08T06:21:34;14.50;99.90
19888;DHT22;10106;51.332;12.336;2023-08-08T06:23:59;14.60;99.90
19888;DHT22;10106;51.332;12.336;2023-08-08T06:26:25;14.60;99.90
19888;DHT22;10106;51.332;12.336;2023-08-08T11:51:13;22.30;99.90
19888;DHT22;10106;51.332;12.336;2023-08-08T11:53:47;22.40;99.90
19888;DHT22;10106;51.332;12.336;2023-08-08T11:56:13;22.30;99.90
19888;DHT22;10106;51.332;12.336;2023-08-08T11:58:39;22.30;99.90
19888;DHT22;10106;51.332;12.336;2023-08-08T12:01:05;22.10;99.90
19888;DHT22;10106;51.332;12.336;2023-08-08T12:03:30;21.90;99.90
19888;DHT22;10106;51.332;12.336;2023-08-08T12:05:56;21.60;99.90
19888;DHT22;10106;51.332;12.336;2023-08-08T12:08:22;21.40;99.90
19888;DHT22;10106;51.332;12.336;2023-08-08T12:10:52;21.00;99.90
19888;DHT22;10106;51.332;12.336;2023-08-08T12:13:20;20.80;99.90
19888;DHT22;10106;51.332;12.336;2023-08-08T12:15:46;20.50;99.90
19888;DHT22;10106;51.332;12.336;2023-08-08T12:18:15;20.30;99.90
19888;DHT22;10106;51.332;12.336;2023-08-08T12:20:41;20.20;99.90
19888;DHT22;10106;51.332;12.336;2023-08-08T12:23:06;20.80;99.90
19888;DHT22;10106;51.332;12.336;2023-08-08T12:25:32;21.30;99.90
19888;DHT22;10106;51.332;12.336;2023-08-08T12:27:58;21.70;99.90
19888;DHT22;10106;51.332;12.336;2023-08-08T12:30:24;21.60;99.90
19888;DHT22;10106;51.332;12.336;2023-08-08T12:32:49;21.60;99.90
19888;DHT22;10106;51.332;12.336;2023-08-08T12:35:15;21.60;99.90
19888;DHT22;10106;51.332;12.336;2023-08-08T12:37:41;21.80;99.90
19888;DHT22;10106;51.332;12.336;2023-08-08T12:40:07;21.70;99.90
19888;DHT22;10106;51.332;12.336;2023-08-08T12:42:33;21.70;99.90
19888;DHT22;10106;51.332;12.336;2023-08-08T12:44:59;21.60;99.90
19888;DHT22;10106;51.332;12.336;2023-08-08T12:47:24;21.40;99.90
19888;DHT22;10106;51.332;12.336;2023-08-08T12:49:50;21.30;99.90
19888;DHT22;10106;51.332;12.336;2023-08-08T12:52:15;21.00;99.70
19888;DHT22;10106;51.332;12.336;2023-08-08T12:54:41;21.20;99.80
19888;DHT22;10106;51.332;12.336;2023-08-08T12:57:07;21.60;99.00
19888;DHT22;10106;51.332;12.336;2023-08-08T12:59:32;22.00;98.30
19888;DHT22;10106;51.332;12.336;2023-08-08T13:01:58;21.90;98.20
19888;DHT22;10106;51.332;12.336;2023-08-08T13:04:24;21.80;98.40
19888;DHT22;10106;51.332;12.336;2023-08-08T13:06:50;21.80;98.80
19888;DHT22;10106;51.332;12.336;2023-08-08T13:09:16;21.90;99.00
19888;DHT22;10106;51.332;12.336;2023-08-08T13:11:42;21.80;98.80
19888;DHT22;10106;51.332;12.336;2023-08-08T13:14:07;21.60;99.50
19888;DHT22;10106;51.332;12.336;2023-08-08T13:16:33;21.30;99.90
19888;DHT22;10106;51.332;12.336;2023-08-08T13:18:58;21.20;99.90
19888;DHT22;10106;51.332;12.336;2023-08-08T13:21:24;21.10;99.90
19888;DHT22;10106;51.332;12.336;2023-08-08T13:23:50;21.20;99.90
19888;DHT22;10106;51.332;12.336;2023-08-08T13:26:16;21.20;99.90
19888;DHT22;10106;51.332;12.336;2023-08-08T13:28:41;21.10;99.90
19888;DHT22;10106;51.332;12.336;2023-08-08T13:31:08;20.90;99.90
19888;DHT22;10106;51.332;12.336;2023-08-08T13:33:33;20.90;99.90
19888;DHT22;10106;51.332;12.336;2023-08-08T13:35:59;20.80;99.90
19888;DHT22;10106;51.332;12.336;2023-08-08T13:38:25;20.80;99.90
19888;DHT22;10106;51.332;12.336;2023-08-08T13:40:51;20.60;99.90
19888;DHT22;10106;51.332;12.336;2023-08-08T13:43:17;20.40;99.90
19888;DHT22;10106;51.332;12.336;2023-08-08T13:45:42;20.20;99.90
19888;DHT22;10106;51.332;12.336;2023-08-08T13:48:08;20.20;99.90
19888;DHT22;10106;51.332;12.336;2023-08-08T13:50:33;20.40;99.90
19888;DHT22;10106;51.332;12.336;2023-08-08T13:52:59;20.70;99.90
19888;DHT22;10106;51.332;12.336;2023-08-08T13:55:24;20.90;99.90
19888;DHT22;10106;51.332;12.336;2023-08-08T13:57:52;20.90;97.10
19888;DHT22;10106;51.332;12.336;2023-08-08T14:00:18;21.00;96.60
19888;DHT22;10106;51.332;12.336;2023-08-08T14:02:43;20.90;97.10
19888;DHT22;10106;51.332;12.336;2023-08-08T14:05:09;20.90;98.00
19888;DHT22;10106;51.332;12.336;2023-08-08T14:07:35;20.90;98.10
19888;DHT22;10106;51.332;12.336;2023-08-08T14:10:01;20.90;98.50
19888;DHT22;10106;51.332;12.336;2023-08-08T14:12:27;20.80;98.30
19888;DHT22;10106;51.332;12.336;2023-08-08T14:14:53;20.60;98.10
19888;DHT22;10106;51.332;12.336;2023-08-08T14:17:18;20.50;97.80
19888;DHT22;10106;51.332;12.336;2023-08-08T14:19:44;20.50;96.60
19888;DHT22;10106;51.332;12.336;2023-08-08T14:22:09;20.40;96.70
19888;DHT22;10106;51.332;12.336;2023-08-08T14:37:25;19.40;99.90
19888;DHT22;10106;51.332;12.336;2023-08-08T14:39:50;19.40;99.90
19888;DHT22;10106;51.332;12.336;2023-08-08T14:42:16;19.30;99.90
19888;DHT22;10106;51.332;12.336;2023-08-08T14:44:42;19.30;99.90
19888;DHT22;10106;51.332;12.336;2023-08-08T14:47:07;19.30;99.90
19888;DHT22;10106;51.332;12.336;2023-08-08T14:49:33;19.40;99.90
19888;DHT22;10106;51.332;12.336;2023-08-08T14:51:59;19.30;99.90
19888;DHT22;10106;51.332;12.336;2023-08-08T14:54:24;19.30;99.90
19888;DHT22;10106;51.332;12.336;2023-08-08T14:56:50;19.30;99.90
19888;DHT22;10106;51.332;12.336;2023-08-08T14:59:16;19.20;99.90
19888;DHT22;10106;51.332;12.336;2023-08-08T15:01:42;19.10;99.90
19888;DHT22;10106;51.332;12.336;2023-08-08T15:04:08;19.00;99.90
19888;DHT22;10106;51.332;12.336;2023-08-08T15:06:36;18.90;99.90
19888;DHT22;10106;51.332;12.336;2023-08-08T15:09:02;18.90;99.90
19888;DHT22;10106;51.332;12.336;2023-08-08T15:11:46;18.80;99.90
19888;DHT22;10106;51.332;12.336;2023-08-08T15:14:23;18.70;99.90
19888;DHT22;10106;51.332;12.336;2023-08-08T15:16:49;18.70;99.90
19888;DHT22;10106;51.332;12.336;2023-08-08T15:19:15;18.60;99.90
19888;DHT22;10106;51.332;12.336;2023-08-08T15:21:41;18.60;99.90
19888;DHT22;10106;51.332;12.336;2023-08-08T15:24:11;18.60;99.90
19888;DHT22;10106;51.332;12.336;2023-08-08T15:26:44;18.60;99.90
19888;DHT22;10106;51.332;12.336;2023-08-08T15:29:12;18.70;99.90
19888;DHT22;10106;51.332;12.336;2023-08-08T15:31:40;18.70;99.90
19888;DHT22;10106;51.332;12.336;2023-08-08T15:34:06;18.60;99.90
19888;DHT22;10106;51.332;12.336;2023-08-08T15:36:32;18.60;99.90
19888;DHT22;10106;51.332;12.336;2023-08-08T15:38:57;18.60;99.90
19888;DHT22;10106;51.332;12.336;2023-08-08T15:41:23;18.60;99.90
19888;DHT22;10106;51.332;12.336;2023-08-08T15:43:49;18.70;99.90
19888;DHT22;10106;51.332;12.336;2023-08-08T15:46:14;18.70;99.90
19888;DHT22;10106;51.332;12.336;2023-08-08T15:48:40;18.70;99.90
19888;DHT22;10106;51.332;12.336;2023-08-08T15:51:06;18.70;99.90
19888;DHT22;10106;51.332;12.336;2023-08-08T15:53:31;18.90;99.90
19888;DHT22;10106;51.332;12.336;2023-08-08T15:55:59;19.00;99.90
19888;DHT22;10106;51.332;12.336;2023-08-08T15:58:25;19.20;99.90
19888;DHT22;10106;51.332;12.336;2023-08-08T16:00:51;19.20;99.90
19888;DHT22;10106;51.332;12.336;2023-08-08T16:03:17;19.10;99.90
19888;DHT22;10106;51.332;12.336;2023-08-08T16:05:43;19.10;99.90
19888;DHT22;10106;51.332;12.336;2023-08-08T16:08:08;19.10;99.90
19888;DHT22;10106;51.332;12.336;2023-08-08T16:10:34;19.10;99.90
19888;DHT22;10106;51.332;12.336;2023-08-08T16:12:59;19.10;99.90
19888;DHT22;10106;51.332;12.336;2023-08-08T16:15:25;19.10;99.90
19888;DHT22;10106;51.332;12.336;2023-08-08T16:17:51;19.10;99.90
19888;DHT22;10106;51.332;12.336;2023-08-08T16:20:17;19.10;99.90
19888;DHT22;10106;51.332;12.336;2023-08-08T16:22:42;19.10;99.90
19888;DHT22;10106;51.332;12.336;2023-08-08T16:25:08;18.90;99.90
19888;DHT22;10106;51.332;12.336;2023-08-08T16:27:37;18.80;99.90
19888;DHT22;10106;51.332;12.336;2023-08-08T16:30:03;18.70;99.90
19888;DHT22;10106;51.332;12.336;2023-08-08T16:32:29;18.50;99.90
19888;DHT22;10106;51.332;12.336;2023-08-08T16:34:55;18.60;99.90
19888;DHT22;10106;51.332;12.336;2023-08-08T16:37:20;18.50;99.90
19888;DHT22;10106;51.332;12.336;2023-08-08T16:39:46;18.40;99.90
19888;DHT22;10106;51.332;12.336;2023-08-08T16:42:12;18.40;99.90
19888;DHT22;10106;51.332;12.336;2023-08-08T16:44:40;18.30;99.90
19888;DHT22;10106;51.332;12.336;2023-08-08T16:47:06;18.20;99.90
19888;DHT22;10106;51.332;12.336;2023-08-08T16:49:35;18.10;99.90
19888;DHT22;10106;51.332;12.336;2023-08-08T16:52:04;18.20;99.90
19888;DHT22;10106;51.332;12.336;2023-08-08T16:54:34;18.10;99.90
19888;DHT22;10106;51.332;12.336;2023-08-08T16:57:00;18.10;99.90
19888;DHT22;10106;51.332;12.336;2023-08-08T16:59:28;18.00;99.90
19888;DHT22;10106;51.332;12.336;2023-08-08T17:02:14;18.00;99.90
19888;DHT22;10106;51.332;12.336;2023-08-08T17:04:42;17.90;99.90
19888;DHT22;10106;51.332;12.336;2023-08-08T17:07:07;17.80;99.90
19888;DHT22;10106;51.332;12.336;2023-08-08T17:09:35;17.90;99.90
19888;DHT22;10106;51.332;12.336;2023-08-08T17:14:33;17.90;99.90
19888;DHT22;10106;51.332;12.336;2023-08-08T17:16:58;18.00;99.90
19888;DHT22;10106;51.332;12.336;2023-08-08T17:19:30;18.00;99.90
19888;DHT22;10106;51.332;12.336;2023-08-08T17:21:58;18.00;99.90
19888;DHT22;10106;51.332;12.336;2023-08-08T17:27:22;18.20;99.90
19888;DHT22;10106;51.332;12.336;2023-08-08T17:29:49;18.20;99.90
19888;DHT22;10106;51.332;12.336;2023-08-08T17:32:15;18.20;99.90
19888;DHT22;10106;51.332;12.336;2023-08-08T17:34:40;18.10;99.90
19888;DHT22;10106;51.332;12.336;2023-08-08T17:37:06;18.10;99.90
19888;DHT22;10106;51.332;12.336;2023-08-08T17:39:32;18.00;99.90
19888;DHT22;10106;51.332;12.336;2023-08-08T17:41:58;17.90;99.90
19888;DHT22;10106;51.332;12.336;2023-08-08T17:44:24;17.90;99.90
19888;DHT22;10106;51.332;12.336;2023-08-08T17:46:51;17.80;99.90
19888;DHT22;10106;51.332;12.336;2023-08-08T17:49:16;17.70;99.90
19888;DHT22;10106;51.332;12.336;2023-08-08T17:51:42;17.70;99.90
19888;DHT22;10106;51.332;12.336;2023-08-08T17:54:08;17.60;99.90
19888;DHT22;10106;51.332;12.336;2023-08-08T17:56:33;17.50;99.90
19888;DHT22;10106;51.332;12.336;2023-08-08T17:59:02;17.40;99.90
19888;DHT22;10106;51.332;12.336;2023-08-08T18:01:36;17.30;99.90
19888;DHT22;10106;51.332;12.336;2023-08-08T18:04:01;17.30;99.90
19888;DHT22;10106;51.332;12.336;2023-08-08T18:06:28;17.10;99.90
19888;DHT22;10106;51.332;12.336;2023-08-08T18:08:56;17.20;99.90
19888;DHT22;10106;51.332;12.336;2023-08-08T18:11:39;17.00;99.90
19888;DHT22;10106;51.332;12.336;2023-08-08T18:14:05;17.10;99.90
19888;DHT22;10106;51.332;12.336;2023-08-08T18:16:32;17.00;99.90
19888;DHT22;10106;51.332;12.336;2023-08-08T18:26:38;16.70;99.90
19888;DHT22;10106;51.332;12.336;2023-08-08T18:29:04;16.70;99.90
19888;DHT22;10106;51.332;12.336;2023-08-08T18:31:30;16.60;99.90
19888;DHT22;10106;51.332;12.336;2023-08-08T18:33:57;16.50;99.90
19888;DHT22;10106;51.332;12.336;2023-08-08T18:36:27;16.50;99.90
19888;DHT22;10106;51.332;12.336;2023-08-08T18:38:54;16.50;99.90
19888;DHT22;10106;51.332;12.336;2023-08-08T18:41:19;16.40;99.90
19888;DHT22;10106;51.332;12.336;2023-08-08T18:43:45;16.40;99.90
19888;DHT22;10106;51.332;12.336;2023-08-08T18:46:11;16.40;99.90
19888;DHT22;10106;51.332;12.336;2023-08-08T18:48:38;16.30;99.90
19888;DHT22;10106;51.332;12.336;2023-08-08T18:51:03;16.30;99.90
19888;DHT22;10106;51.332;12.336;2023-08-08T18:53:30;16.20;99.90
19888;DHT22;10106;51.332;12.336;2023-08-08T18:55:56;16.20;99.90
19888;DHT22;10106;51.332;12.336;2023-08-08T18:58:21;16.10;99.90
19888;DHT22;10106;51.332;12.336;2023-08-08T19:00:47;16.20;99.90
19888;DHT22;10106;51.332;12.336;2023-08-08T19:03:13;16.10;99.90
19888;DHT22;10106;51.332;12.336;2023-08-08T19:05:39;16.20;99.90
19888;DHT22;10106;51.332;12.336;2023-08-08T19:08:05;16.20;99.90
19888;DHT22;10106;51.332;12.336;2023-08-08T19:10:30;16.20;99.90
19888;DHT22;10106;51.332;12.336;2023-08-08T19:12:56;16.10;99.90
19888;DHT22;10106;51.332;12.336;2023-08-08T19:15:22;16.10;99.90
19888;DHT22;10106;51.332;12.336;2023-08-08T19:17:48;16.10;99.90
19888;DHT22;10106;51.332;12.336;2023-08-08T19:20:13;16.10;99.90
19888;DHT22;10106;51.332;12.336;2023-08-08T19:22:39;16.10;99.90
19888;DHT22;10106;51.332;12.336;2023-08-08T19:28:09;15.90;99.90
19888;DHT22;10106;51.332;12.336;2023-08-08T19:30:35;15.90;99.90
19888;DHT22;10106;51.332;12.336;2023-08-08T19:33:01;15.90;99.90
19888;DHT22;10106;51.332;12.336;2023-08-08T19:35:26;15.80;99.90
19888;DHT22;10106;51.332;12.336;2023-08-08T19:37:52;15.70;99.90
19888;DHT22;10106;51.332;12.336;2023-08-08T19:40:19;15.70;99.90
19888;DHT22;10106;51.332;12.336;2023-08-08T19:42:47;15.60;99.90
19888;DHT22;10106;51.332;12.336;2023-08-08T19:45:13;15.60;99.90
19888;DHT22;10106;51.332;12.336;2023-08-08T19:47:40;15.60;99.90
19888;DHT22;10106;51.332;12.336;2023-08-08T19:50:06;15.50;99.90
19888;DHT22;10106;51.332;12.336;2023-08-08T19:52:33;15.40;99.90
19888;DHT22;10106;51.332;12.336;2023-08-08T19:54:59;15.40;99.90
19888;DHT22;10106;51.332;12.336;2023-08-08T19:57:28;15.30;99.90
19888;DHT22;10106;51.332;12.336;2023-08-08T19:59:54;15.30;99.90
19888;DHT22;10106;51.332;12.336;2023-08-08T20:02:21;15.20;99.90
19888;DHT22;10106;51.332;12.336;2023-08-08T20:04:47;15.10;99.90
19888;DHT22;10106;51.332;12.336;2023-08-08T20:07:13;15.20;99.90
19888;DHT22;10106;51.332;12.336;2023-08-08T20:09:39;15.10;99.90
19888;DHT22;10106;51.332;12.336;2023-08-08T20:12:07;15.10;99.90
19888;DHT22;10106;51.332;12.336;2023-08-08T20:14:33;15.00;99.90
19888;DHT22;10106;51.332;12.336;2023-08-08T20:17:00;15.00;99.90
19888;DHT22;10106;51.332;12.336;2023-08-08T20:19:26;14.90;99.90
19888;DHT22;10106;51.332;12.336;2023-08-08T20:21:52;14.90;99.90
19888;DHT22;10106;51.332;12.336;2023-08-08T20:24:17;14.90;99.90
19888;DHT22;10106;51.332;12.336;2023-08-08T20:26:45;14.90;99.90
19888;DHT22;10106;51.332;12.336;2023-08-08T20:29:11;14.90;99.90
19888;DHT22;10106;51.332;12.336;2023-08-08T20:31:37;14.80;99.90
19888;DHT22;10106;51.332;12.336;2023-08-08T20:34:05;14.80;99.90
19888;DHT22;10106;51.332;12.336;2023-08-08T20:36:31;14.80;99.90
19888;DHT22;10106;51.332;12.336;2023-08-08T20:38:57;14.80;99.90
19888;DHT22;10106;51.332;12.336;2023-08-08T20:41:23;14.80;99.90
19888;DHT22;10106;51.332;12.336;2023-08-08T20:43:49;14.80;99.90
19888;DHT22;10106;51.332;12.336;2023-08-08T20:46:14;14.80;99.90
19888;DHT22;10106;51.332;12.336;2023-08-08T20:48:40;14.80;99.90
19888;DHT22;10106;51.332;12.336;2023-08-08T20:51:09;14.80;99.90
19888;DHT22;10106;51.332;12.336;2023-08-08T20:53:37;14.80;99.90
19888;DHT22;10106;51.332;12.336;2023-08-08T20:56:03;14.80;99.90
19888;DHT22;10106;51.332;12.336;2023-08-08T20:58:30;14.80;99.90
19888;DHT22;10106;51.332;12.336;2023-08-08T21:00:57;14.80;99.90
19888;DHT22;10106;51.332;12.336;2023-08-08T21:03:24;14.80;99.90
19888;DHT22;10106;51.332;12.336;2023-08-08T21:05:50;14.80;99.90
19888;DHT22;10106;51.332;12.336;2023-08-08T21:08:19;14.80;99.90
19888;DHT22;10106;51.332;12.336;2023-08-08T21:10:45;14.80;99.90
19888;DHT22;10106;51.332;12.336;2023-08-08T21:13:11;14.80;99.90
19888;DHT22;10106;51.332;12.336;2023-08-08T21:15:36;14.80;99.90
19888;DHT22;10106;51.332;12.336;2023-08-08T21:18:02;14.70;99.90
19888;DHT22;10106;51.332;12.336;2023-08-08T21:20:28;14.80;99.90
19888;DHT22;10106;51.332;12.336;2023-08-08T21:22:54;14.70;99.90
19888;DHT22;10106;51.332;12.336;2023-08-08T21:25:19;14.70;99.90
19888;DHT22;10106;51.332;12.336;2023-08-08T21:27:45;14.70;99.90
19888;DHT22;10106;51.332;12.336;2023-08-08T21:30:10;14.70;99.90
19888;DHT22;10106;51.332;12.336;2023-08-08T21:32:36;14.70;99.90
19888;DHT22;10106;51.332;12.336;2023-08-08T21:35:02;14.70;99.90
19888;DHT22;10106;51.332;12.336;2023-08-08T21:37:28;14.60;99.90
19888;DHT22;10106;51.332;12.336;2023-08-08T21:39:53;14.70;99.90
19888;DHT22;10106;51.332;12.336;2023-08-08T21:42:19;14.60;99.90
19888;DHT22;10106;51.332;12.336;2023-08-08T21:44:45;14.60;99.90
19888;DHT22;10106;51.332;12.336;2023-08-08T21:47:13;14.50;99.90
19888;DHT22;10106;51.332;12.336;2023-08-08T21:49:39;14.50;99.90
19888;DHT22;10106;51.332;12.336;2023-08-08T21:52:07;14.40;99.90
19888;DHT22;10106;51.332;12.336;2023-08-08T21:54:33;14.40;99.90
19888;DHT22;10106;51.332;12.336;2023-08-08T21:56:59;14.30;99.90
19888;DHT22;10106;51.332;12.336;2023-08-08T21:59:24;14.30;99.90
19888;DHT22;10106;51.332;12.336;2023-08-08T22:01:50;14.30;99.90
19888;DHT22;10106;51.332;12.336;2023-08-08T22:04:15;14.30;99.90
19888;DHT22;10106;51.332;12.336;2023-08-08T22:06:41;14.30;99.90
19888;DHT22;10106;51.332;12.336;2023-08-08T22:09:06;14.30;99.90
19888;DHT22;10106;51.332;12.336;2023-08-08T22:11:32;14.40;99.90
19888;DHT22;10106;51.332;12.336;2023-08-08T22:13:58;14.40;99.90
19888;DHT22;10106;51.332;12.336;2023-08-08T22:16:23;14.40;99.90
19888;DHT22;10106;51.332;12.336;2023-08-08T22:18:49;14.40;99.90
19888;DHT22;10106;51.332;12.336;2023-08-08T22:21:14;14.40;99.90
19888;DHT22;10106;51.332;12.336;2023-08-08T22:23:40;14.40;99.90
19888;DHT22;10106;51.332;12.336;2023-08-08T22:26:06;14.40;99.90
19888;DHT22;10106;51.332;12.336;2023-08-08T22:28:31;14.40;99.90
19888;DHT22;10106;51.332;12.336;2023-08-08T22:30:57;14.40;99.90
19888;DHT22;10106;51.332;12.336;2023-08-08T22:33:22;14.40;99.90
19888;DHT22;10106;51.332;12.336;2023-08-08T22:35:48;14.40;99.90
19888;DHT22;10106;51.332;12.336;2023-08-08T22:38:13;14.40;99.90
19888;DHT22;10106;51.332;12.336;2023-08-08T22:40:39;14.40;99.90
19888;DHT22;10106;51.332;12.336;2023-08-08T22:43:05;14.30;99.90
19888;DHT22;10106;51.332;12.336;2023-08-08T22:45:30;14.20;99.90
19888;DHT22;10106;51.332;12.336;2023-08-08T22:47:56;14.20;99.90
19888;DHT22;10106;51.332;12.336;2023-08-08T22:50:22;14.10;99.90
19888;DHT22;10106;51.332;12.336;2023-08-08T22:52:47;14.10;99.90
19888;DHT22;10106;51.332;12.336;2023-08-08T22:55:13;14.10;99.90
19888;DHT22;10106;51.332;12.336;2023-08-08T22:57:39;14.10;99.90
19888;DHT22;10106;51.332;12.336;2023-08-08T23:00:05;14.10;99.90
19888;DHT22;10106;51.332;12.336;2023-08-08T23:02:32;14.10;99.90
19888;DHT22;10106;51.332;12.336;2023-08-08T23:04:58;14.10;99.90
19888;DHT22;10106;51.332;12.336;2023-08-08T23:07:23;14.10;99.90
19888;DHT22;10106;51.332;12.336;2023-08-08T23:09:49;14.20;99.90
19888;DHT22;10106;51.332;12.336;2023-08-08T23:12:15;14.20;99.90
19888;DHT22;10106;51.332;12.336;2023-08-08T23:14:41;14.20;99.90
19888;DHT22;10106;51.332;12.336;2023-08-08T23:17:07;14.20;99.90
19888;DHT22;10106;51.332;12.336;2023-08-08T23:19:33;14.20;99.90
19888;DHT22;10106;51.332;12.336;2023-08-08T23:21:59;14.20;99.90
19888;DHT22;10106;51.332;12.336;2023-08-08T23:24:24;14.20;99.90
19888;DHT22;10106;51.332;12.336;2023-08-08T23:26:50;14.20;99.90
19888;DHT22;10106;51.332;12.336;2023-08-08T23:29:16;14.20;99.90
19888;DHT22;10106;51.332;12.336;2023-08-08T23:31:41;14.20;99.90
19888;DHT22;10106;51.332;12.336;2023-08-08T23:34:07;14.20;99.90
19888;DHT22;10106;51.332;12.336;2023-08-08T23:36:32;14.20;99.90
19888;DHT22;10106;51.332;12.336;2023-08-08T23:38:58;14.20;99.90
19888;DHT22;10106;51.332;12.336;2023-08-08T23:41:23;14.20;99.90
19888;DHT22;10106;51.332;12.336;2023-08-08T23:43:49;14.30;99.90
19888;DHT22;10106;51.332;12.336;2023-08-08T23:46:15;14.30;99.90
19888;DHT22;10106;51.332;12.336;2023-08-08T23:48:40;14.30;99.90
19888;DHT22;10106;51.332;12.336;2023-08-08T23:51:06;14.30;99.90
19888;DHT22;10106;51.332;12.336;2023-08-08T23:53:35;14.30;99.90
19888;DHT22;10106;51.332;12.336;2023-08-08T23:56:00;14.30;99.90
19888;DHT22;10106;51.332;12.336;2023-08-08T23:58:26;14.30;99.90
